Time;durP1;ratioP1;P1;durP2;ratioP2;P2;SDS_P1;SDS_P2;PMS_P1;PMS_P2;Temp;Humidity;BMP_temperature;BMP_pressure;BME280_temperature;BME280_humidity;BME280_pressure;Samples;Min_cycle;Max_cycle;Signal;HPM_P1;HPM_P2
2024/04/24 00:02:10;;;;;;;10.73;4.83;;;;;;;-145.69;67.07;52347.34;5527194;26;20567;-78
2024/04/24 00:04:38;;;;;;;9.23;4.47;;;;;;;-145.69;67.67;52341.41;5526698;26;20569;-75
2024/04/24 00:07:06;;;;;;;6.67;3.93;;;;;;;-145.69;66.88;52347.34;5526248;26;20271;-75
2024/04/24 00:09:34;;;;;;;7.03;4.17;;;;;;;-145.69;67.29;52369.13;5526820;26;20334;-75
2024/04/24 00:12:02;;;;;;;6.10;4.23;;;;;;;-145.69;66.82;52317.66;5525835;26;20264;-75
2024/04/24 00:14:30;;;;;;;10.43;4.77;;;;;;;-145.69;66.82;52345.38;5526244;26;20292;-78
2024/04/24 00:16:58;;;;;;;7.87;4.90;;;;;;;-145.69;66.46;52345.38;5522477;26;20584;-76
2024/04/24 00:19:29;;;;;;;9.13;4.63;;;;;;;-145.69;66.97;52329.53;5502423;25;20298;-77
2024/04/24 00:21:57;;;;;;;9.83;4.77;;;;;;;-145.69;67.20;52365.16;5489188;26;20241;-78
2024/04/24 00:24:25;;;;;;;7.83;4.17;;;;;;;-145.69;68.11;52333.47;5489550;26;20257;-76
2024/04/24 00:26:55;;;;;;;6.77;4.70;;;;;;;-145.69;67.88;52373.09;5504441;26;20379;-76
2024/04/24 00:29:23;;;;;;;10.90;4.60;;;;;;;-145.69;68.16;52343.38;5525690;26;20229;-76
2024/04/24 00:31:52;;;;;;;7.43;4.50;;;;;;;-145.69;68.00;52327.53;5526349;26;20225;-77
2024/04/24 00:34:20;;;;;;;7.73;4.40;;;;;;;-145.69;67.80;52355.28;5526191;26;20758;-77
2024/04/24 00:36:51;;;;;;;9.50;4.47;;;;;;;-145.69;67.97;52341.41;5526614;26;20256;-76
2024/04/24 00:39:19;;;;;;;9.30;4.53;;;;;;;-145.69;68.01;52373.09;5526154;26;20221;-76
2024/04/24 00:41:47;;;;;;;6.80;4.10;;;;;;;-145.69;67.43;52329.53;5525247;26;20321;-77
2024/04/24 00:44:15;;;;;;;7.83;4.40;;;;;;;-145.69;67.43;52369.13;5526205;26;20225;-75
2024/04/24 00:46:45;;;;;;;6.67;4.40;;;;;;;-145.69;67.75;52337.44;5525859;26;20268;-77
2024/04/24 00:49:14;;;;;;;6.50;3.97;;;;;;;-145.69;67.82;52337.44;5526687;26;20316;-76
2024/04/24 00:51:44;;;;;;;13.37;4.80;;;;;;;-145.69;68.45;52349.31;5526265;26;20271;-76
2024/04/24 00:54:15;;;;;;;8.73;4.57;;;;;;;-145.69;68.54;52319.63;5525878;26;20275;-77
2024/04/24 00:56:44;;;;;;;10.40;4.93;;;;;;;-145.69;69.01;52394.88;5525849;26;20226;-76
2024/04/24 00:59:12;;;;;;;5.83;4.30;;;;;;;-145.69;68.76;52337.44;5526054;26;20277;-77
2024/04/24 01:01:40;;;;;;;9.33;4.20;;;;;;;-145.69;68.52;52381.00;5526009;26;20221;-77
2024/04/24 01:04:08;;;;;;;7.57;4.27;;;;;;;-145.69;67.96;52365.16;5526172;26;20345;-75
2024/04/24 01:06:37;;;;;;;7.70;4.50;;;;;;;-145.69;68.17;52349.31;5525393;26;20229;-76
2024/04/24 01:09:05;;;;;;;8.57;4.83;;;;;;;-145.69;68.75;52353.28;5525647;26;20268;-77
2024/04/24 01:11:36;;;;;;;7.80;4.50;;;;;;;-145.69;68.42;52357.25;5525292;26;20303;-77
2024/04/24 01:14:04;;;;;;;9.47;4.60;;;;;;;-145.69;68.87;52345.38;5525743;26;20229;-76
2024/04/24 01:16:36;;;;;;;8.17;4.57;;;;;;;-145.69;68.86;52357.25;5525298;26;20225;-77
2024/04/24 01:19:09;;;;;;;12.93;5.60;;;;;;;-145.69;69.41;52345.38;5525750;26;20688;-77
2024/04/24 01:21:47;;;;;;;8.93;4.90;;;;;;;-145.69;68.66;52341.41;5525315;26;20568;-77
2024/04/24 01:24:23;;;;;;;10.73;5.33;;;;;;;-145.69;68.60;52369.13;5525357;26;20334;-77
2024/04/24 01:26:54;;;;;;;9.37;4.53;;;;;;;-145.69;68.45;52303.78;5525429;26;20241;-78
2024/04/24 01:29:23;;;;;;;8.17;4.77;;;;;;;-145.69;69.55;52369.13;5524738;26;20221;-77
2024/04/24 01:31:51;;;;;;;7.53;4.43;;;;;;;-145.69;68.81;52333.47;5525394;26;20317;-76
2024/04/24 01:34:19;;;;;;;8.13;5.10;;;;;;;-145.69;69.66;52303.78;5524857;26;20226;-76
2024/04/24 01:36:47;;;;;;;9.70;5.30;;;;;;;-145.69;69.23;52341.41;5524337;26;20218;-75
2024/04/24 01:39:15;;;;;;;9.03;5.03;;;;;;;-145.69;69.10;52347.34;5525343;26;20600;-76
2024/04/24 01:41:43;;;;;;;9.80;5.27;;;;;;;-145.69;69.10;52367.16;5523885;26;20264;-75
2024/04/24 01:44:14;;;;;;;9.07;4.83;;;;;;;-145.69;69.40;52345.38;5525170;26;20217;-77
2024/04/24 01:46:42;;;;;;;9.83;5.37;;;;;;;-145.69;70.08;52337.44;5525652;26;20225;-76
2024/04/24 01:49:10;;;;;;;9.70;5.90;;;;;;;-145.69;70.23;52377.06;5524932;26;20329;-79
2024/04/24 01:51:39;;;;;;;7.93;4.60;;;;;;;-145.69;69.83;52369.13;5525090;26;20323;-77
2024/04/24 01:54:07;;;;;;;11.93;5.70;;;;;;;-145.69;70.14;52416.66;5525083;26;20229;-78
2024/04/24 01:56:35;;;;;;;10.27;5.43;;;;;;;-145.69;70.32;52359.22;5524657;26;20627;-77
2024/04/24 01:59:03;;;;;;;19.97;5.87;;;;;;;-145.69;70.06;52321.59;5524914;26;20213;-76
2024/04/24 02:01:34;;;;;;;9.47;5.63;;;;;;;-145.69;70.18;52313.69;5524946;26;20249;-75
2024/04/24 02:04:02;;;;;;;9.33;5.13;;;;;;;-145.69;69.65;52333.47;5524974;26;20221;-77
2024/04/24 02:06:30;;;;;;;11.77;5.57;;;;;;;-145.69;69.09;52371.13;5525081;26;20816;-75
2024/04/24 02:08:58;;;;;;;12.67;4.97;;;;;;;-145.69;69.81;52373.09;5525122;26;20537;-77
2024/04/24 02:11:27;;;;;;;13.37;5.80;;;;;;;-145.69;70.03;52349.31;5524523;26;20221;-77
2024/04/24 02:13:55;;;;;;;13.03;5.07;;;;;;;-145.69;70.24;52353.28;5524955;26;20325;-76
2024/04/24 02:16:23;;;;;;;8.57;5.47;;;;;;;-145.69;69.88;52384.97;5520670;26;20281;-77
2024/04/24 02:18:54;;;;;;;8.67;5.00;;;;;;;-145.69;69.51;52359.22;5523720;26;20298;-76
2024/04/24 02:21:22;;;;;;;7.70;4.33;;;;;;;-145.69;70.19;52349.31;5523522;26;20592;-77
2024/04/24 02:23:47;;;;;;;10.17;5.20;;;;;;;-145.69;70.13;52349.31;5524798;26;20696;-75
2024/04/24 02:26:16;;;;;;;9.47;5.03;;;;;;;-145.69;70.42;52351.31;5523761;26;20246;-76
2024/04/24 02:28:41;;;;;;;9.93;5.47;;;;;;;-145.69;70.13;52357.25;5524659;26;20296;-77
2024/04/24 02:31:09;;;;;;;12.57;5.33;;;;;;;-145.69;70.35;52329.53;5524317;26;20222;-76
2024/04/24 02:33:39;;;;;;;16.53;5.30;;;;;;;-145.69;70.61;52355.28;5523886;26;20346;-75
2024/04/24 02:36:10;;;;;;;10.97;5.40;;;;;;;-145.69;70.30;52357.25;5523891;26;20249;-76
2024/04/24 02:38:38;;;;;;;14.60;5.43;;;;;;;-145.69;70.08;52347.34;5524780;26;20226;-77
2024/04/24 02:41:06;;;;;;;12.73;6.27;;;;;;;-145.69;70.45;52307.75;5528075;26;20611;-76
2024/04/24 02:43:35;;;;;;;11.13;6.13;;;;;;;-145.69;70.79;52345.38;5528174;26;20572;-77
2024/04/24 02:46:03;;;;;;;11.73;5.47;;;;;;;-145.69;70.46;52329.53;5527433;26;20230;-78
2024/04/24 02:48:31;;;;;;;14.00;5.93;;;;;;;-145.69;70.02;52371.13;5527670;26;20793;-77
2024/04/24 02:50:59;;;;;;;11.30;5.37;;;;;;;-145.69;69.82;52347.34;5527346;26;20310;-77
2024/04/24 02:53:30;;;;;;;11.13;5.20;;;;;;;-145.69;69.82;52347.34;5527367;26;20321;-76
2024/04/24 02:55:58;;;;;;;10.17;4.80;;;;;;;-145.69;69.67;52341.41;5526619;26;20770;-75
2024/04/24 02:58:26;;;;;;;11.00;5.40;;;;;;;-145.69;69.39;52327.53;5528044;26;20353;-77
2024/04/24 03:00:53;;;;;;;14.00;4.93;;;;;;;-145.69;69.36;52313.69;5527748;26;20588;-77
2024/04/24 03:03:21;;;;;;;9.07;4.97;;;;;;;-145.69;69.25;52329.53;5527107;26;20325;-78
2024/04/24 03:05:49;;;;;;;12.80;5.07;;;;;;;-145.69;69.31;52293.88;5527846;26;20259;-78
2024/04/24 03:08:17;;;;;;;8.03;4.33;;;;;;;-145.69;69.78;52349.31;5527156;26;20260;-78
2024/04/24 03:10:48;;;;;;;8.60;4.90;;;;;;;-145.69;69.45;52345.38;5527544;26;20269;-75
2024/04/24 03:13:16;;;;;;;7.10;4.50;;;;;;;-145.69;69.71;52319.63;5526966;26;20700;-75
2024/04/24 03:15:44;;;;;;;9.03;5.50;;;;;;;-145.69;69.51;52317.66;5526900;26;20853;-76
2024/04/24 03:18:12;;;;;;;7.47;4.87;;;;;;;-145.69;69.83;52369.13;5527487;26;20229;-75
2024/04/24 03:20:40;;;;;;;7.70;4.17;;;;;;;-145.69;69.60;52365.16;5526970;26;20230;-76
2024/04/24 03:23:08;;;;;;;9.63;5.67;;;;;;;-145.69;69.39;52337.44;5527296;26;20329;-76
2024/04/24 03:25:37;;;;;;;14.03;5.73;;;;;;;-145.69;69.87;52349.31;5527392;26;20238;-77
2024/04/24 03:28:08;;;;;;;9.43;5.23;;;;;;;-145.69;69.22;52329.53;5526420;26;20223;-78
2024/04/24 03:30:36;;;;;;;8.60;5.40;;;;;;;-145.69;68.99;52369.13;5526564;26;20267;-74
2024/04/24 03:33:04;;;;;;;6.80;4.50;;;;;;;-145.69;69.31;52307.75;5526951;26;20566;-77
2024/04/24 03:35:32;;;;;;;7.00;4.57;;;;;;;-145.69;68.82;52325.56;5526675;26;20263;-76
2024/04/24 03:38:00;;;;;;;8.97;5.03;;;;;;;-145.69;69.03;52313.69;5526793;26;20316;-77
2024/04/24 03:40:28;;;;;;;7.37;4.60;;;;;;;-145.69;68.90;52317.66;5526990;26;20260;-77
2024/04/24 03:42:56;;;;;;;8.83;4.30;;;;;;;-145.69;68.85;52317.66;5526629;26;20233;-76
2024/04/24 03:45:27;;;;;;;7.07;4.33;;;;;;;-145.69;68.91;52349.31;5526320;26;20225;-78
2024/04/24 03:47:55;;;;;;;9.07;5.47;;;;;;;-145.69;68.98;52325.56;5526829;26;20354;-77
2024/04/24 03:50:23;;;;;;;8.00;4.60;;;;;;;-145.69;69.00;52341.41;5524886;26;20234;-75
2024/04/24 03:52:52;;;;;;;8.37;4.70;;;;;;;-145.69;68.86;52309.72;5526846;26;20272;-79
2024/04/24 03:55:20;;;;;;;6.77;4.53;;;;;;;-145.69;68.99;52325.56;5526764;26;20225;-77
2024/04/24 03:57:48;;;;;;;9.30;5.03;;;;;;;-145.69;68.37;52347.34;5526932;26;20259;-78
2024/04/24 04:00:16;;;;;;;9.23;4.80;;;;;;;-145.69;69.01;52361.22;5526771;26;20812;-78
2024/04/24 04:02:49;;;;;;;7.00;4.57;;;;;;;-145.69;69.14;52301.81;5526848;26;20221;-78
2024/04/24 04:05:17;;;;;;;6.57;4.50;;;;;;;-145.69;69.33;52345.38;5525986;26;20333;-76
2024/04/24 04:07:46;;;;;;;10.17;5.00;;;;;;;-145.69;69.37;52337.44;5526089;26;20290;-77
2024/04/24 04:10:14;;;;;;;9.63;5.47;;;;;;;-145.69;68.92;52321.59;5524914;26;20332;-78
2024/04/24 04:12:44;;;;;;;11.03;5.43;;;;;;;-145.69;68.69;52319.63;5526360;26;20273;-76
2024/04/24 04:15:13;;;;;;;9.67;5.33;;;;;;;-145.69;69.00;52333.47;5525166;26;20762;-77
2024/04/24 04:17:41;;;;;;;9.33;5.60;;;;;;;-145.69;68.78;52323.59;5526112;26;20778;-74
2024/04/24 04:20:12;;;;;;;10.90;5.33;;;;;;;-145.69;68.37;52341.41;5525892;26;20237;-78
2024/04/24 04:22:40;;;;;;;11.90;4.97;;;;;;;-145.69;68.20;52309.72;5524612;26;20226;-76
2024/04/24 04:25:09;;;;;;;8.43;4.73;;;;;;;-145.69;68.17;52341.41;5526119;26;20272;-75
2024/04/24 04:27:37;;;;;;;9.07;5.37;;;;;;;-145.69;68.11;52327.53;5525873;26;20820;-75
2024/04/24 04:30:03;;;;;;;7.23;4.30;;;;;;;-145.69;68.12;52347.34;5525533;26;20712;-78
2024/04/24 04:32:31;;;;;;;9.02;5.30;;;;;;;-145.69;68.69;52325.56;5525701;26;20924;-77
2024/04/24 04:34:59;;;;;;;10.00;5.40;;;;;;;-145.69;67.56;52337.44;5526183;26;20225;-76
2024/04/24 04:37:30;;;;;;;9.40;4.70;;;;;;;-145.69;67.86;52335.47;5526446;26;20222;-76
2024/04/24 04:39:58;;;;;;;8.53;5.13;;;;;;;-145.69;67.80;52333.47;5525590;26;20601;-76
2024/04/24 04:42:26;;;;;;;12.17;5.67;;;;;;;-145.69;67.23;52349.31;5525835;26;20645;-77
2024/04/24 04:44:54;;;;;;;7.90;4.80;;;;;;;-145.69;67.10;52329.53;5525542;26;20293;-77
2024/04/24 04:47:22;;;;;;;12.77;5.07;;;;;;;-145.69;66.69;52349.31;5526264;26;20298;-78
2024/04/24 04:49:50;;;;;;;7.27;4.37;;;;;;;-145.69;66.76;52303.78;5526291;26;20268;-77
2024/04/24 04:52:18;;;;;;;11.60;4.90;;;;;;;-145.69;66.73;52333.47;5525629;26;20221;-78
2024/04/24 04:54:49;;;;;;;7.23;4.40;;;;;;;-145.69;66.85;52335.47;5526178;26;20225;-77
2024/04/24 04:57:17;;;;;;;7.20;4.30;;;;;;;-145.69;66.77;52357.25;5525342;26;20345;-77
2024/04/24 04:59:45;;;;;;;9.27;5.10;;;;;;;-145.69;66.60;52297.84;5526050;26;20221;-77
2024/04/24 05:02:14;;;;;;;9.07;4.63;;;;;;;-145.69;66.13;52341.41;5524804;26;20354;-76
2024/04/24 05:04:42;;;;;;;7.30;4.40;;;;;;;-145.69;65.94;52329.53;5526286;26;20277;-76
2024/04/24 05:07:10;;;;;;;10.70;5.17;;;;;;;-145.69;65.84;52357.25;5526068;26;20268;-77
2024/04/24 05:09:38;;;;;;;8.30;5.07;;;;;;;-145.69;65.68;52353.28;5525978;26;20767;-77
2024/04/24 05:12:10;;;;;;;14.97;4.87;;;;;;;-145.69;65.39;52293.88;5525133;26;20248;-77
2024/04/24 05:14:39;;;;;;;12.20;6.00;;;;;;;-145.69;65.58;52363.19;5525220;26;20728;-77
2024/04/24 05:17:07;;;;;;;9.43;5.13;;;;;;;-145.69;64.43;52319.63;5525712;26;20218;-76
2024/04/24 05:19:35;;;;;;;8.47;4.90;;;;;;;-145.69;64.74;52321.59;5525725;26;20221;-77
2024/04/24 05:22:03;;;;;;;10.63;4.73;;;;;;;-145.69;64.49;52299.81;5525820;26;20221;-77
2024/04/24 05:24:31;;;;;;;7.83;4.90;;;;;;;-145.69;64.47;52331.50;5525710;26;20217;-77
2024/04/24 05:29:46;;;;;;;10.63;4.73;;;;;;;-145.69;64.40;52329.53;5528504;26;20797;-76
2024/04/24 05:32:15;;;;;;;9.60;5.23;;;;;;;-145.69;64.09;52339.44;5525515;26;20704;-75
2024/04/24 05:34:43;;;;;;;7.77;5.03;;;;;;;-145.69;63.63;52353.28;5525217;26;20280;-77
2024/04/24 05:37:11;;;;;;;15.17;5.63;;;;;;;-145.69;61.51;52289.91;5525436;26;20217;-77
2024/04/24 05:39:39;;;;;;;12.87;4.97;;;;;;;-145.69;61.82;52299.81;5525088;26;20720;-77
2024/04/24 05:42:07;;;;;;;6.97;4.53;;;;;;;-145.69;61.61;52325.56;5524776;26;20226;-77
2024/04/24 05:44:36;;;;;;;8.43;4.87;;;;;;;-145.69;61.84;52329.53;5525364;26;20225;-77
2024/04/24 05:47:07;;;;;;;9.73;5.53;;;;;;;-145.69;61.26;52280.00;5524996;26;20264;-77
2024/04/24 05:49:35;;;;;;;9.67;4.50;;;;;;;-145.69;60.19;52315.66;5525173;26;20225;-76
2024/04/24 05:52:06;;;;;;;9.07;5.17;;;;;;;-145.69;58.76;52329.53;5524736;26;20700;-76
2024/04/24 05:54:35;;;;;;;6.50;3.80;;;;;;;-145.69;59.49;52293.88;5524900;26;20225;-77
2024/04/24 05:57:03;;;;;;;10.63;5.13;;;;;;;-145.69;57.75;52299.81;5524825;26;20256;-77
2024/04/24 05:59:31;;;;;;;8.40;4.63;;;;;;;-145.69;56.72;52317.66;5524943;26;20267;-77
2024/04/24 06:01:59;;;;;;;8.70;4.60;;;;;;;-145.69;58.15;52307.75;5525196;26;20256;-77
2024/04/24 06:04:30;;;;;;;8.67;4.70;;;;;;;-145.69;57.00;52254.28;5524580;26;20670;-77
2024/04/24 06:06:58;;;;;;;9.33;4.90;;;;;;;-145.69;54.71;52291.91;5524888;26;20218;-77
2024/04/24 06:09:27;;;;;;;9.37;5.03;;;;;;;-145.69;55.04;52333.47;5524430;26;20241;-76
2024/04/24 06:11:55;;;;;;;8.23;4.57;;;;;;;-145.69;53.35;52283.97;5524641;26;20229;-76
2024/04/24 06:14:23;;;;;;;7.57;4.30;;;;;;;-145.69;53.78;52297.84;5525337;26;20245;-77
2024/04/24 06:16:51;;;;;;;9.27;4.73;;;;;;;-145.69;51.97;52301.81;5526866;26;20370;-77
2024/04/24 06:19:19;;;;;;;11.43;5.40;;;;;;;-145.69;51.26;52289.91;5527355;26;20332;-76
2024/04/24 06:21:50;;;;;;;8.23;4.53;;;;;;;-145.69;52.56;52305.75;5528399;26;20276;-76
2024/04/24 06:24:19;;;;;;;9.30;4.80;;;;;;;-145.69;52.72;52291.91;5527945;26;20260;-77
2024/04/24 06:26:47;;;;;;;7.50;4.90;;;;;;;-145.69;51.79;52287.94;5527692;26;20660;-77
2024/04/24 06:29:15;;;;;;;8.83;4.77;;;;;;;-145.69;51.66;52305.75;5528848;26;20217;-76
2024/04/24 06:31:43;;;;;;;12.50;5.37;;;;;;;-145.69;52.64;52309.72;5528204;26;20256;-76
2024/04/24 06:34:11;;;;;;;8.93;5.17;;;;;;;-145.69;51.70;52313.69;5527743;26;20649;-76
2024/04/24 06:36:39;;;;;;;9.70;4.87;;;;;;;-145.69;52.02;52285.97;5528369;26;20346;-77
2024/04/24 06:39:10;;;;;;;9.47;4.97;;;;;;;-145.69;50.23;52266.16;5528323;26;20221;-76
2024/04/24 06:41:38;;;;;;;7.97;5.27;;;;;;;-145.69;50.01;52283.97;5527671;26;20222;-76
2024/04/24 06:44:07;;;;;;;9.47;4.27;;;;;;;-145.69;47.99;52289.91;5527512;26;20230;-76
2024/04/24 06:46:37;;;;;;;7.13;4.03;;;;;;;-145.69;48.86;52285.97;5527842;26;20230;-77
2024/04/24 06:49:05;;;;;;;8.00;4.50;;;;;;;-145.69;48.59;52270.13;5527517;26;20293;-77
2024/04/24 06:51:33;;;;;;;7.13;4.17;;;;;;;-145.69;49.23;52293.88;5526840;26;20267;-76
2024/04/24 06:54:02;;;;;;;7.53;4.67;;;;;;;-145.69;49.37;52258.22;5527820;26;20776;-77
2024/04/24 06:56:33;;;;;;;10.07;4.90;;;;;;;-145.69;50.00;52305.75;5527974;26;20573;-77
2024/04/24 06:59:01;;;;;;;10.33;4.80;;;;;;;-145.69;48.15;52283.97;5526580;26;20780;-76
2024/04/24 07:01:29;;;;;;;8.10;4.57;;;;;;;-145.69;47.91;52313.69;5526876;26;20229;-75
2024/04/24 07:03:58;;;;;;;7.73;5.07;;;;;;;-145.69;48.06;52297.84;5528020;26;20221;-77
2024/04/24 07:06:26;;;;;;;8.60;4.73;;;;;;;-145.69;46.29;52270.13;5527938;26;20221;-76
2024/04/24 07:08:54;;;;;;;9.77;5.00;;;;;;;-145.69;46.66;52283.97;5528023;26;20702;-76
2024/04/24 07:11:22;;;;;;;10.10;4.63;;;;;;;-145.69;46.21;52262.19;5527464;26;20221;-76
2024/04/24 07:13:53;;;;;;;7.27;4.63;;;;;;;-145.69;46.36;52276.06;5527373;26;20233;-76
2024/04/24 07:16:21;;;;;;;9.97;5.23;;;;;;;-145.69;46.64;52272.09;5526308;26;20225;-77
2024/04/24 07:18:50;;;;;;;8.83;5.40;;;;;;;-145.69;44.78;52264.16;5526396;26;20709;-77
2024/04/24 07:21:18;;;;;;;10.07;5.87;;;;;;;-145.69;43.22;52242.38;5527709;26;20584;-76
2024/04/24 07:23:46;;;;;;;11.60;6.40;;;;;;;-145.69;43.84;52278.03;5527489;26;20858;-77
2024/04/24 07:26:14;;;;;;;9.63;5.97;;;;;;;-145.69;42.77;52230.50;5526877;26;20553;-77
2024/04/24 07:28:42;;;;;;;11.47;6.13;;;;;;;-145.69;41.41;52250.31;5523812;26;20329;-75
2024/04/24 07:31:13;;;;;;;9.70;5.80;;;;;;;-145.69;41.16;52262.19;5527593;26;20295;-76
2024/04/24 07:33:41;;;;;;;9.47;5.87;;;;;;;-145.69;41.62;52250.31;5527206;26;20584;-77
2024/04/24 07:36:09;;;;;;;13.57;7.13;;;;;;;-145.69;40.91;52270.13;5526987;26;20225;-76
2024/04/24 07:38:38;;;;;;;11.20;6.20;;;;;;;-145.69;41.64;52242.38;5527549;26;20688;-76
2024/04/24 07:41:07;;;;;;;12.03;6.77;;;;;;;-145.69;42.77;52238.44;5527339;26;20256;-77
2024/04/24 07:43:36;;;;;;;13.60;7.07;;;;;;;-145.69;42.12;52270.13;5526625;26;20335;-75
2024/04/24 07:46:04;;;;;;;11.67;6.30;;;;;;;-145.69;41.94;52270.13;5527247;26;20276;-77
2024/04/24 07:48:35;;;;;;;11.73;6.53;;;;;;;-145.69;42.06;52218.63;5527234;26;20264;-76
2024/04/24 07:51:03;;;;;;;10.83;6.40;;;;;;;-145.69;40.22;52208.72;5526941;26;20697;-77
2024/04/24 07:53:31;;;;;;;10.27;6.37;;;;;;;-145.69;40.32;52230.50;5526425;26;20230;-76
2024/04/24 07:56:00;;;;;;;12.17;6.10;;;;;;;-145.69;39.86;52232.50;5526955;26;20307;-77
2024/04/24 07:58:32;;;;;;;10.70;5.80;;;;;;;-145.69;38.98;52194.88;5527234;26;20221;-77
2024/04/24 08:01:00;;;;;;;10.93;5.43;;;;;;;-145.69;39.60;52210.72;5526667;26;20688;-77
2024/04/24 08:03:28;;;;;;;8.97;5.23;;;;;;;-145.69;38.88;52210.72;5526594;26;20324;-77
2024/04/24 08:05:59;;;;;;;6.87;4.70;;;;;;;-145.69;37.73;52208.72;5527186;26;20700;-77
2024/04/24 08:08:27;;;;;;;8.70;4.70;;;;;;;-145.69;38.21;52224.56;5526050;26;20229;-77
2024/04/24 08:10:55;;;;;;;9.97;5.20;;;;;;;-145.69;37.96;52236.44;5526844;26;20285;-76
2024/04/24 08:13:23;;;;;;;8.23;5.10;;;;;;;-145.69;39.23;52230.50;5526728;26;20234;-76
2024/04/24 08:15:51;;;;;;;8.63;4.80;;;;;;;-145.69;38.90;52202.78;5527239;26;20225;-75
2024/04/24 08:18:19;;;;;;;5.97;4.23;;;;;;;-145.69;40.37;52228.53;5526773;26;20222;-76
2024/04/24 08:20:47;;;;;;;10.43;5.10;;;;;;;-145.69;39.35;52246.34;5525603;26;20289;-75
2024/04/24 08:23:18;;;;;;;8.13;4.70;;;;;;;-145.69;39.01;52182.97;5525973;26;20672;-75
2024/04/24 08:25:46;;;;;;;8.67;4.97;;;;;;;-145.69;38.68;52238.44;5525843;26;20238;-75
2024/04/24 08:28:14;;;;;;;6.47;4.00;;;;;;;-145.69;38.54;52190.91;5525941;26;20616;-76
2024/04/24 08:30:42;;;;;;;6.60;4.07;;;;;;;-145.69;39.13;52232.50;5526771;26;20225;-75
2024/04/24 08:33:11;;;;;;;7.87;4.80;;;;;;;-145.69;39.42;52184.97;5526083;26;20222;-76
2024/04/24 08:35:39;;;;;;;10.00;4.63;;;;;;;-145.69;39.21;52226.53;5526452;26;20222;-75
2024/04/24 08:38:07;;;;;;;10.43;4.20;;;;;;;-145.69;39.06;52222.59;5525649;26;20275;-75
2024/04/24 08:40:38;;;;;;;6.50;4.50;;;;;;;-145.69;39.19;52224.56;5526432;26;20331;-76
2024/04/24 08:43:06;;;;;;;9.17;4.73;;;;;;;-145.69;39.05;52226.53;5524932;26;20721;-76
2024/04/24 08:45:34;;;;;;;7.20;4.80;;;;;;;-145.69;39.29;52204.75;5489263;26;20227;-76
2024/04/24 08:48:03;;;;;;;9.30;4.73;;;;;;;-145.69;38.71;52234.47;5489211;26;20226;-76
2024/04/24 08:50:32;;;;;;;10.60;4.87;;;;;;;-145.69;38.57;52234.47;5489555;26;20222;-77
2024/04/24 08:53:05;;;;;;;8.40;4.97;;;;;;;-145.69;38.68;52200.81;5496975;26;20237;-75
2024/04/24 08:55:42;;;;;;;8.13;4.97;;;;;;;-145.69;38.09;52206.75;5526520;26;20704;-75
2024/04/24 08:58:11;;;;;;;9.43;4.70;;;;;;;-145.69;38.32;52198.81;5525668;26;20257;-76
2024/04/24 09:00:40;;;;;;;7.37;4.33;;;;;;;-145.69;37.42;52186.94;5526472;26;20221;-75
2024/04/24 09:03:21;;;;;;;7.77;4.80;;;;;;;-145.69;38.12;52177.03;5525497;26;20222;-76
2024/04/24 09:05:51;;;;;;;7.27;5.00;;;;;;;-145.69;37.85;52190.91;5525513;26;20352;-76
2024/04/24 09:08:21;;;;;;;8.57;4.83;;;;;;;-145.69;37.60;52206.75;5518302;26;20287;-77
2024/04/24 09:10:53;;;;;;;5.73;4.20;;;;;;;-145.69;37.88;52202.78;5512568;26;20647;-77
2024/04/24 09:13:22;;;;;;;7.30;4.70;;;;;;;-145.69;38.81;52179.03;5525992;26;20281;-76
2024/04/24 09:15:52;;;;;;;7.13;4.07;;;;;;;-145.69;36.45;52188.91;5525649;26;20225;-76
2024/04/24 09:18:20;;;;;;;7.77;4.30;;;;;;;-145.69;36.51;52198.81;5525174;26;20350;-76
2024/04/24 09:20:50;;;;;;;6.73;3.60;;;;;;;-145.69;36.21;52184.97;5525279;26;20550;-76
2024/04/24 09:23:24;;;;;;;8.00;3.77;;;;;;;-145.69;35.89;52192.88;5525012;26;20615;-76
2024/04/24 09:25:57;;;;;;;7.90;4.30;;;;;;;-145.69;36.45;52179.03;5525754;26;20236;-77
2024/04/24 09:28:25;;;;;;;8.37;3.57;;;;;;;-145.69;35.64;52202.78;5525575;26;20221;-76
2024/04/24 09:30:54;;;;;;;5.77;3.93;;;;;;;-145.69;35.93;52179.03;5525829;26;20350;-76
2024/04/24 09:33:22;;;;;;;8.50;3.80;;;;;;;-145.69;36.22;52190.91;5525548;26;20647;-76
2024/04/24 09:35:50;;;;;;;4.87;3.53;;;;;;;-145.69;37.40;52194.88;5525693;26;20265;-76
2024/04/24 09:38:18;;;;;;;11.77;5.27;;;;;;;-145.69;36.04;52216.66;5525735;26;20272;-77
2024/04/24 09:40:48;;;;;;;10.73;5.23;;;;;;;-145.69;36.44;52190.91;5524596;26;20221;-76
2024/04/24 09:43:18;;;;;;;7.17;4.00;;;;;;;-145.69;36.71;52206.75;5524969;26;20221;-77
2024/04/24 09:45:45;;;;;;;7.80;3.57;;;;;;;-145.69;37.29;52190.91;5524473;26;20723;-77
2024/04/24 09:48:18;;;;;;;8.40;3.90;;;;;;;-145.69;38.11;52194.88;5523938;26;20696;-76
2024/04/24 09:50:47;;;;;;;6.10;4.10;;;;;;;-145.69;37.93;52212.69;5525147;26;20221;-77
2024/04/24 09:53:18;;;;;;;5.33;3.40;;;;;;;-145.69;38.30;52182.97;5525495;26;20221;-77
2024/04/24 09:55:57;;;;;;;6.30;4.00;;;;;;;-145.69;37.91;52184.97;5525317;26;20255;-76
2024/04/24 09:58:28;;;;;;;6.30;3.97;;;;;;;-145.69;38.29;52220.59;5525041;26;20245;-77
2024/04/24 10:01:00;;;;;;;7.70;4.07;;;;;;;-145.69;38.83;52252.28;5524499;26;20225;-77
2024/04/24 10:03:31;;;;;;;5.90;3.63;;;;;;;-145.69;40.67;52184.97;5525194;26;20271;-77
2024/04/24 10:06:02;;;;;;;7.70;4.17;;;;;;;-145.69;41.78;52208.72;5525338;26;20293;-76
2024/04/24 10:08:33;;;;;;;7.20;4.00;;;;;;;-145.69;41.53;52212.69;5524713;26;20595;-77
2024/04/24 10:11:04;;;;;;;11.67;4.67;;;;;;;-145.69;41.19;52192.88;5525119;26;20221;-77
2024/04/24 10:13:39;;;;;;;7.53;4.53;;;;;;;-145.69;40.24;52210.72;5516036;25;20273;-76
2024/04/24 10:16:08;;;;;;;7.60;4.33;;;;;;;-145.69;40.51;52222.59;5511748;26;20731;-77
2024/04/24 10:18:38;;;;;;;6.63;4.27;;;;;;;-145.69;41.00;52202.78;5524184;26;20333;-77
2024/04/24 10:21:08;;;;;;;5.50;3.80;;;;;;;-145.69;40.83;52214.66;5525085;26;20288;-76
2024/04/24 10:23:37;;;;;;;7.63;4.00;;;;;;;-145.69;40.72;52240.41;5524558;26;20736;-76
2024/04/24 10:26:07;;;;;;;7.30;4.10;;;;;;;-145.69;40.28;52206.75;5524385;26;20245;-78
2024/04/24 10:28:39;;;;;;;8.70;4.53;;;;;;;-145.69;40.16;52192.88;5524605;26;20221;-76
2024/04/24 10:31:09;;;;;;;8.93;4.20;;;;;;;-145.69;40.50;52206.75;5524663;26;20218;-76
2024/04/24 10:33:44;;;;;;;6.87;4.10;;;;;;;-145.69;40.48;52222.59;5524498;26;20373;-76
2024/04/24 10:36:15;;;;;;;5.90;4.27;;;;;;;-145.69;40.72;52208.72;5523829;26;20549;-77
2024/04/24 10:38:57;;;;;;;5.93;4.20;;;;;;;-145.69;40.98;52186.94;5524115;26;20716;-76
2024/04/24 10:41:26;;;;;;;11.77;5.17;;;;;;;-145.69;40.92;52270.13;5524132;26;20281;-76
2024/04/24 10:43:58;;;;;;;9.80;4.83;;;;;;;-145.69;41.83;52226.53;5524479;26;20229;-78
2024/04/24 10:46:29;;;;;;;10.87;5.13;;;;;;;-145.69;42.69;52218.63;5523968;26;20358;-78
2024/04/24 10:48:58;;;;;;;10.93;4.90;;;;;;;-145.69;43.58;52206.75;5524199;26;20222;-75
2024/04/24 10:51:31;;;;;;;9.87;5.20;;;;;;;-145.69;43.89;52210.72;5524359;26;20268;-77
2024/04/24 10:54:13;;;;;;;13.20;5.07;;;;;;;-145.69;44.27;52181.00;5524427;26;20704;-77
2024/04/24 10:56:42;;;;;;;10.90;5.30;;;;;;;-145.69;44.61;52220.59;5523383;26;20762;-77
2024/04/24 10:59:16;;;;;;;8.83;5.57;;;;;;;-145.69;45.02;52212.69;5498901;26;20352;-77
2024/04/24 11:01:45;;;;;;;13.57;5.87;;;;;;;-145.69;45.98;52252.28;5527191;26;20576;-77
2024/04/24 11:04:17;;;;;;;10.23;5.57;;;;;;;-145.69;44.88;52194.88;5527936;26;20353;-77
2024/04/24 11:06:46;;;;;;;9.33;5.67;;;;;;;-145.69;44.86;52218.63;5527764;26;20221;-78
2024/04/24 11:09:15;;;;;;;11.10;5.47;;;;;;;-145.69;45.23;52204.75;5528531;26;20777;-76
2024/04/24 11:11:44;;;;;;;7.43;4.67;;;;;;;-145.69;45.12;52224.56;5527701;26;20255;-77
2024/04/24 11:14:18;;;;;;;9.53;5.40;;;;;;;-145.69;45.36;52242.38;5526972;26;20230;-76
2024/04/24 11:16:56;;;;;;;8.40;5.43;;;;;;;-145.69;45.44;52202.78;5517062;25;20289;-77
2024/04/24 11:19:26;;;;;;;12.70;5.80;;;;;;;-145.69;45.79;52220.59;5527613;26;20259;-77
2024/04/24 11:22:00;;;;;;;8.30;4.80;;;;;;;-145.69;45.52;52210.72;5527557;26;20221;-76
2024/04/24 11:24:36;;;;;;;9.80;5.43;;;;;;;-145.69;45.39;52246.34;5527707;26;20295;-77
2024/04/24 11:27:04;;;;;;;11.27;6.00;;;;;;;-145.69;45.59;52220.59;5527195;26;20233;-77